createdAt,value
2018-01-29T00:02:09.035Z,2.30
2018-01-29T00:04:37.360Z,2.77
2018-01-29T00:07:04.931Z,2.77
2018-01-29T00:09:32.508Z,2.20
2018-01-29T00:12:00.126Z,2.60
2018-01-29T00:14:27.702Z,2.90
2018-01-29T00:16:55.277Z,2.50
2018-01-29T00:19:22.855Z,2.33
2018-01-29T00:21:51.281Z,2.70
2018-01-29T00:24:18.860Z,2.73
2018-01-29T00:26:46.445Z,2.57
2018-01-29T00:29:14.023Z,2.50
2018-01-29T00:31:42.346Z,2.40
2018-01-29T00:34:09.939Z,2.90
2018-01-29T00:36:38.298Z,2.83
2018-01-29T00:39:05.872Z,2.30
2018-01-29T00:41:33.446Z,2.63
2018-01-29T00:44:01.794Z,2.40
2018-01-29T00:46:29.356Z,2.90
2018-01-29T00:48:56.937Z,2.43
2018-01-29T00:51:25.254Z,2.37
2018-01-29T00:53:52.826Z,2.73
2018-01-29T00:56:20.467Z,3.03
2018-01-29T00:58:48.027Z,3.00
2018-01-29T01:01:15.637Z,2.77
2018-01-29T01:03:43.958Z,2.77
2018-01-29T01:06:11.623Z,2.57
2018-01-29T01:08:39.201Z,2.40
2018-01-29T01:11:06.837Z,2.00
2018-01-29T01:13:34.394Z,2.90
2018-01-29T01:16:01.990Z,2.67
2018-01-29T01:18:29.562Z,2.80
2018-01-29T01:20:57.205Z,2.43
2018-01-29T01:23:24.788Z,2.60
2018-01-29T01:25:53.104Z,2.50
2018-01-29T01:28:20.679Z,2.50
2018-01-29T01:30:48.297Z,2.50
2018-01-29T01:33:15.857Z,2.60
2018-01-29T01:35:43.469Z,2.73
2018-01-29T01:38:11.023Z,2.13
2018-01-29T01:40:38.600Z,2.50
2018-01-29T01:43:06.173Z,1.90
2018-01-29T01:45:34.547Z,1.87
2018-01-29T01:48:02.875Z,2.20
2018-01-29T01:50:30.531Z,1.70
2018-01-29T01:52:58.134Z,1.67
2018-01-29T01:55:26.503Z,2.07
2018-01-29T01:57:54.091Z,1.73
2018-01-29T02:00:22.521Z,1.70
2018-01-29T02:02:50.084Z,1.70
2018-01-29T02:05:17.669Z,1.57
2018-01-29T02:07:46.043Z,2.50
2018-01-29T02:10:14.425Z,1.80
2018-01-29T02:12:42.770Z,1.80
2018-01-29T02:15:10.440Z,1.50
2018-01-29T02:17:38.026Z,1.80
2018-01-29T02:20:06.372Z,1.73
2018-01-29T02:22:33.941Z,2.20
2018-01-29T02:25:01.510Z,1.87
2018-01-29T02:27:29.091Z,2.30
2018-01-29T02:29:56.665Z,2.23
2018-01-29T02:32:24.263Z,1.80
2018-01-29T02:34:51.848Z,2.10
2018-01-29T02:37:20.272Z,1.83
2018-01-29T02:39:47.876Z,2.13
2018-01-29T02:42:15.490Z,1.80
2018-01-29T02:44:43.052Z,2.13
2018-01-29T02:47:10.621Z,1.93
2018-01-29T02:49:38.194Z,1.63
2018-01-29T02:52:05.782Z,2.20
2018-01-29T02:54:34.098Z,1.93
2018-01-29T02:57:01.655Z,2.03
2018-01-29T02:59:29.253Z,2.37
2018-01-29T03:01:56.866Z,1.97
2018-01-29T03:04:24.413Z,1.90
2018-01-29T03:06:51.984Z,2.00
2018-01-29T03:09:19.597Z,2.10
2018-01-29T03:11:47.154Z,1.87
2018-01-29T03:14:14.707Z,2.00
2018-01-29T03:16:42.377Z,1.77
2018-01-29T03:19:09.939Z,1.83
2018-01-29T03:21:38.272Z,1.80
2018-01-29T03:24:05.845Z,2.27
2018-01-29T03:26:33.399Z,2.27
2018-01-29T03:29:00.960Z,1.80
2018-01-29T03:31:28.592Z,1.80
2018-01-29T03:33:56.171Z,1.97
2018-01-29T03:36:23.732Z,2.43
2018-01-29T03:38:51.329Z,2.03
2018-01-29T03:41:19.667Z,2.30
2018-01-29T03:43:47.243Z,2.00
2018-01-29T03:46:14.890Z,2.30
2018-01-29T03:48:42.551Z,2.13
2018-01-29T03:51:10.140Z,2.00
2018-01-29T03:53:38.501Z,2.00
2018-01-29T03:56:06.159Z,2.27
2018-01-29T03:58:33.833Z,2.50
2018-01-29T04:01:02.173Z,1.80
2018-01-29T04:03:29.779Z,1.93
2018-01-29T04:05:58.190Z,2.33
2018-01-29T04:08:25.792Z,2.03
2018-01-29T04:10:53.461Z,2.50
2018-01-29T04:13:21.833Z,2.80
2018-01-29T04:15:49.429Z,2.17
2018-01-29T04:18:16.997Z,2.57
2018-01-29T04:20:44.557Z,2.30
2018-01-29T04:23:12.145Z,2.00
2018-01-29T04:25:39.707Z,2.07
2018-01-29T04:28:07.304Z,2.40
2018-01-29T04:30:35.659Z,2.20
2018-01-29T04:33:03.325Z,2.00
2018-01-29T04:35:31.654Z,2.50
2018-01-29T04:37:59.249Z,2.70
2018-01-29T04:40:26.894Z,2.30
2018-01-29T04:42:54.494Z,2.17
2018-01-29T04:45:22.828Z,2.20
2018-01-29T04:47:50.384Z,2.40
2018-01-29T04:50:17.966Z,2.00
2018-01-29T04:52:45.521Z,1.70
2018-01-29T04:55:13.107Z,1.90
2018-01-29T04:57:40.667Z,4.60
2018-01-29T05:00:08.223Z,2.13
2018-01-29T05:02:35.789Z,1.97
2018-01-29T05:05:03.469Z,2.03
2018-01-29T05:07:31.026Z,2.40
2018-01-29T05:09:58.584Z,2.00
2018-01-29T05:12:26.150Z,2.30
2018-01-29T05:14:53.735Z,2.40
2018-01-29T05:17:21.314Z,2.23
2018-01-29T05:19:49.641Z,2.70
2018-01-29T05:22:17.250Z,2.20
2018-01-29T05:24:45.658Z,2.80
2018-01-29T05:27:13.275Z,4.00
2018-01-29T05:29:40.940Z,3.73
2018-01-29T05:32:08.522Z,3.20
2018-01-29T05:34:36.083Z,3.63
2018-01-29T05:37:06.143Z,2.30
2018-01-29T05:39:33.705Z,2.50
2018-01-29T05:42:01.283Z,3.40
2018-01-29T05:44:29.630Z,3.77
2018-01-29T05:46:57.241Z,2.70
2018-01-29T05:49:25.009Z,2.80
2018-01-29T05:51:52.572Z,2.70
2018-01-29T05:54:20.146Z,2.73
2018-01-29T05:56:47.720Z,3.00
2018-01-29T05:59:15.299Z,2.97
2018-01-29T06:01:42.910Z,2.33
2018-01-29T06:04:10.476Z,2.90
2018-01-29T06:06:38.089Z,1.90
2018-01-29T06:09:05.653Z,2.10
2018-01-29T06:11:33.247Z,2.00
2018-01-29T06:14:00.803Z,2.23
2018-01-29T06:16:28.379Z,2.40
2018-01-29T06:18:56.054Z,2.50
2018-01-29T06:21:23.675Z,2.87
2018-01-29T06:23:51.305Z,2.20
2018-01-29T06:26:18.973Z,2.50
2018-01-29T06:28:47.297Z,2.57
2018-01-29T06:31:14.875Z,2.30
2018-01-29T06:33:42.426Z,2.20
2018-01-29T06:36:10.074Z,2.27
2018-01-29T06:38:37.636Z,2.20
2018-01-29T06:41:05.338Z,2.50
2018-01-29T06:43:32.992Z,2.60
2018-01-29T06:46:00.646Z,2.83
2018-01-29T06:48:28.217Z,2.90
2018-01-29T06:50:55.789Z,2.37
2018-01-29T06:53:24.134Z,2.23
2018-01-29T06:55:51.738Z,2.33
2018-01-29T06:58:19.310Z,2.17
2018-01-29T07:00:46.928Z,2.47
2018-01-29T07:03:14.586Z,2.30
2018-01-29T07:05:42.244Z,2.83
2018-01-29T07:08:09.889Z,2.23
2018-01-29T07:10:37.438Z,2.50
2018-01-29T07:13:05.012Z,2.97
2018-01-29T07:15:32.690Z,2.20
2018-01-29T07:18:01.068Z,2.70
2018-01-29T07:20:30.402Z,2.73
2018-01-29T07:22:57.996Z,3.63
2018-01-29T07:25:25.541Z,5.20
2018-01-29T07:27:53.110Z,5.00
2018-01-29T07:30:20.682Z,4.63
2018-01-29T07:32:48.357Z,3.70
2018-01-29T07:35:16.720Z,4.03
2018-01-29T07:37:44.444Z,4.37
2018-01-29T07:40:12.070Z,3.40
2018-01-29T07:42:40.428Z,5.70
2018-01-29T07:45:08.009Z,4.17
2018-01-29T07:47:35.613Z,4.60
2018-01-29T07:50:03.227Z,4.80
2018-01-29T07:52:30.854Z,3.10
2018-01-29T07:54:58.484Z,3.80
2018-01-29T07:57:26.047Z,2.83
2018-01-29T07:59:53.622Z,2.80
2018-01-29T08:02:21.819Z,3.00
2018-01-29T08:04:50.138Z,3.57
2018-01-29T08:07:17.860Z,3.17
2018-01-29T08:09:46.195Z,3.10
2018-01-29T08:12:13.888Z,3.40
2018-01-29T08:14:41.541Z,3.70
2018-01-29T08:17:20.743Z,4.83
2018-01-29T08:19:50.792Z,5.67
2018-01-29T08:22:19.942Z,6.17
2018-01-29T08:24:49.534Z,6.10
2018-01-29T08:27:18.438Z,6.47
2018-01-29T08:29:47.665Z,6.63
2018-01-29T08:32:16.119Z,6.40
2018-01-29T08:34:44.792Z,7.23
2018-01-29T08:37:13.648Z,7.87
2018-01-29T08:39:42.418Z,8.47
2018-01-29T08:42:12.539Z,8.23
2018-01-29T08:44:41.216Z,8.50
2018-01-29T08:47:11.072Z,8.13
2018-01-29T08:49:39.960Z,8.43
2018-01-29T08:52:08.074Z,8.47
2018-01-29T08:54:36.794Z,9.83
2018-01-29T08:57:04.581Z,8.37
2018-01-29T08:59:32.392Z,8.67
2018-01-29T09:02:00.342Z,7.50
2018-01-29T09:04:29.011Z,8.43
2018-01-29T09:06:56.880Z,7.20
2018-01-29T09:09:25.357Z,7.30
2018-01-29T09:11:53.996Z,7.00
2018-01-29T09:14:22.451Z,6.87
2018-01-29T09:16:51.412Z,6.67
2018-01-29T09:19:20.512Z,6.70
2018-01-29T09:21:50.512Z,6.53
2018-01-29T09:24:29.132Z,5.60
2018-01-29T09:26:59.027Z,5.23
2018-01-29T09:29:37.420Z,5.10
2018-01-29T09:32:05.792Z,5.17
2018-01-29T09:34:33.350Z,5.40
2018-01-29T09:37:01.368Z,4.97
2018-01-29T09:39:29.145Z,4.50
2018-01-29T09:41:58.198Z,4.77
2018-01-29T09:44:26.593Z,4.60
2018-01-29T09:46:54.617Z,3.90
2018-01-29T09:49:22.979Z,4.17
2018-01-29T09:51:51.062Z,4.13
2018-01-29T09:54:18.844Z,3.80
2018-01-29T09:56:47.242Z,4.13
2018-01-29T09:59:15.607Z,3.27
2018-01-29T10:01:43.266Z,3.60
2018-01-29T10:04:10.932Z,3.40
2018-01-29T10:06:39.254Z,2.77
2018-01-29T10:09:06.846Z,3.17
2018-01-29T10:11:34.522Z,2.90
2018-01-29T10:14:02.102Z,2.40
2018-01-29T10:16:29.746Z,2.73
2018-01-29T10:18:58.119Z,2.70
2018-01-29T10:21:26.489Z,2.50
2018-01-29T10:23:54.070Z,2.30
2018-01-29T10:26:22.481Z,2.20
2018-01-29T10:28:50.060Z,2.27
2018-01-29T10:31:17.632Z,2.03
2018-01-29T10:33:45.450Z,2.20
2018-01-29T10:36:13.009Z,2.30
2018-01-29T10:38:40.563Z,1.83
2018-01-29T10:41:08.149Z,1.77
2018-01-29T10:43:35.716Z,2.63
2018-01-29T10:46:03.421Z,1.70
2018-01-29T10:48:31.765Z,2.37
2018-01-29T10:50:59.355Z,2.70
2018-01-29T10:53:26.955Z,2.67
2018-01-29T10:55:54.542Z,2.13
2018-01-29T10:58:22.111Z,2.70
2018-01-29T11:00:55.312Z,2.53
2018-01-29T11:03:22.963Z,2.40
2018-01-29T11:05:50.555Z,2.20
2018-01-29T11:08:18.172Z,2.10
2018-01-29T11:10:45.845Z,1.90
2018-01-29T11:13:14.190Z,1.60
2018-01-29T11:15:42.000Z,1.73
2018-01-29T11:18:10.326Z,2.13
2018-01-29T11:20:37.916Z,2.83
2018-01-29T11:23:05.505Z,2.27
2018-01-29T11:25:33.087Z,1.90
2018-01-29T11:28:00.656Z,2.40
2018-01-29T11:30:28.994Z,1.93
2018-01-29T11:32:56.542Z,1.70
2018-01-29T11:35:24.890Z,2.30
2018-01-29T11:37:52.481Z,2.13
2018-01-29T11:40:20.842Z,2.03
2018-01-29T11:42:49.195Z,1.83
2018-01-29T11:45:16.824Z,2.10
2018-01-29T11:47:44.388Z,1.70
2018-01-29T11:50:11.985Z,1.80
2018-01-29T11:52:39.651Z,2.37
2018-01-29T11:55:07.994Z,1.70
2018-01-29T11:57:35.571Z,1.60
2018-01-29T12:00:03.930Z,1.67
2018-01-29T12:02:31.530Z,1.77
2018-01-29T12:04:59.855Z,1.63
2018-01-29T12:07:27.456Z,1.60
2018-01-29T12:09:55.785Z,1.60
2018-01-29T12:12:23.393Z,1.67
2018-01-29T12:14:51.749Z,2.50
2018-01-29T12:17:19.321Z,1.63
2018-01-29T12:19:46.904Z,1.97
2018-01-29T12:22:14.466Z,1.27
2018-01-29T12:24:42.052Z,2.80
2018-01-29T12:27:09.653Z,3.13
2018-01-29T12:29:37.273Z,1.40
2018-01-29T12:32:04.844Z,1.60
2018-01-29T12:34:32.408Z,1.73
2018-01-29T12:37:00.049Z,1.17
2018-01-29T12:39:27.651Z,1.13
2018-01-29T12:41:56.026Z,1.33
2018-01-29T12:44:23.595Z,1.40
2018-01-29T12:46:52.888Z,1.10
2018-01-29T12:49:21.210Z,1.50
2018-01-29T12:51:48.893Z,1.27
2018-01-29T12:54:16.495Z,1.70
2018-01-29T12:56:44.830Z,1.30
2018-01-29T12:59:12.421Z,1.80
2018-01-29T13:01:40.774Z,1.00
2018-01-29T13:04:08.448Z,1.00
2018-01-29T13:06:36.164Z,0.83
2018-01-29T13:09:03.729Z,0.90
2018-01-29T13:11:31.319Z,0.90
2018-01-29T13:13:58.900Z,1.40
2018-01-29T13:16:27.242Z,1.20
2018-01-29T13:18:54.928Z,1.27
2018-01-29T13:21:23.356Z,1.63
2018-01-29T13:23:50.979Z,1.10
2018-01-29T13:26:19.308Z,1.13
2018-01-29T13:28:46.897Z,1.10
2018-01-29T13:31:14.468Z,0.80
2018-01-29T13:33:42.827Z,0.90
2018-01-29T13:36:10.383Z,1.47
2018-01-29T13:38:38.048Z,1.20
2018-01-29T13:41:05.636Z,0.90
2018-01-29T13:43:33.262Z,1.10
2018-01-29T13:46:00.933Z,1.10
2018-01-29T13:48:29.264Z,1.47
2018-01-29T13:50:57.674Z,1.27
2018-01-29T13:53:25.347Z,1.33
2018-01-29T13:55:53.822Z,1.00
2018-01-29T13:58:21.488Z,3.50
2018-01-29T14:00:49.859Z,1.07
2018-01-29T14:03:17.439Z,0.90
2018-01-29T14:05:45.786Z,1.10
2018-01-29T14:08:13.442Z,1.53
2018-01-29T14:10:41.022Z,0.93
2018-01-29T14:13:09.442Z,1.10
2018-01-29T14:15:37.103Z,1.20
2018-01-29T14:18:04.681Z,1.00
2018-01-29T14:20:32.254Z,1.17
2018-01-29T14:22:59.838Z,1.70
2018-01-29T14:25:28.172Z,1.40
2018-01-29T14:27:55.763Z,1.73
2018-01-29T14:30:24.099Z,1.23
2018-01-29T14:32:51.668Z,1.50
2018-01-29T14:35:19.253Z,1.27
2018-01-29T14:37:46.820Z,0.90
2018-01-29T14:40:15.162Z,1.10
2018-01-29T14:42:42.726Z,2.07
2018-01-29T14:45:10.386Z,1.50
2018-01-29T14:47:37.971Z,1.53
2018-01-29T14:50:06.294Z,1.60
2018-01-29T14:52:33.874Z,1.60
2018-01-29T14:55:01.566Z,3.23
2018-01-29T14:57:29.912Z,2.37
2018-01-29T14:59:57.494Z,1.50
2018-01-29T15:02:25.055Z,1.50
2018-01-29T15:04:53.433Z,1.73
2018-01-29T15:07:21.806Z,1.87
2018-01-29T15:09:49.404Z,1.50
2018-01-29T15:12:17.017Z,1.90
2018-01-29T15:14:44.596Z,1.47
2018-01-29T15:17:12.935Z,1.80
2018-01-29T15:19:40.519Z,1.83
2018-01-29T15:22:08.947Z,1.70
2018-01-29T15:24:36.501Z,2.00
2018-01-29T15:27:04.368Z,1.80
2018-01-29T15:29:31.940Z,1.67
2018-01-29T15:31:59.508Z,1.90
2018-01-29T15:34:27.075Z,2.10
2018-01-29T15:36:54.639Z,1.63
2018-01-29T15:39:22.290Z,1.60
2018-01-29T15:41:49.866Z,1.60
2018-01-29T15:44:17.526Z,1.77
2018-01-29T15:46:45.122Z,1.57
2018-01-29T15:49:12.734Z,1.67
2018-01-29T15:51:40.346Z,2.00
2018-01-29T15:54:07.923Z,2.27
2018-01-29T15:56:35.502Z,1.67
2018-01-29T15:59:03.079Z,1.70
2018-01-29T16:01:30.656Z,1.90
2018-01-29T16:03:58.243Z,1.80
2018-01-29T16:06:25.958Z,1.87
2018-01-29T16:08:53.519Z,2.00
2018-01-29T16:11:21.859Z,1.60
2018-01-29T16:13:49.489Z,2.23
2018-01-29T16:16:17.165Z,1.90
2018-01-29T16:18:44.768Z,2.10
2018-01-29T16:21:12.335Z,2.20
2018-01-29T16:23:40.713Z,2.00
2018-01-29T16:26:09.111Z,2.10
2018-01-29T16:28:36.693Z,3.10
2018-01-29T16:31:04.295Z,2.53
2018-01-29T16:33:31.892Z,3.40
2018-01-29T16:35:59.440Z,2.60
2018-01-29T16:38:27.816Z,2.10
2018-01-29T16:40:56.167Z,2.30
2018-01-29T16:43:23.831Z,3.20
2018-01-29T16:45:51.411Z,2.20
2018-01-29T16:48:19.968Z,2.77
2018-01-29T16:50:47.683Z,2.20
2018-01-29T16:53:15.241Z,2.20
2018-01-29T16:55:42.850Z,2.20
2018-01-29T16:58:10.414Z,2.53
2018-01-29T17:00:38.974Z,2.93
2018-01-29T17:03:06.526Z,3.40
2018-01-29T17:05:34.135Z,2.40
2018-01-29T17:08:01.850Z,3.00
2018-01-29T17:10:29.422Z,2.90
2018-01-29T17:12:57.035Z,2.70
2018-01-29T17:15:24.613Z,3.37
2018-01-29T17:17:52.270Z,4.03
2018-01-29T17:20:19.839Z,2.63
2018-01-29T17:22:47.783Z,2.70
2018-01-29T17:25:15.358Z,2.70
2018-01-29T17:27:42.941Z,3.80
2018-01-29T17:30:10.541Z,2.83
2018-01-29T17:32:38.126Z,3.07
2018-01-29T17:35:05.691Z,2.80
2018-01-29T17:37:33.313Z,3.07
2018-01-29T17:40:00.893Z,3.33
2018-01-29T17:42:28.441Z,3.77
2018-01-29T17:44:56.024Z,3.43
2018-01-29T17:47:23.596Z,4.00
2018-01-29T17:49:51.167Z,3.37
2018-01-29T17:52:19.540Z,3.60
2018-01-29T17:54:47.201Z,3.50
2018-01-29T17:57:14.784Z,3.67
2018-01-29T17:59:43.118Z,3.70
2018-01-29T18:02:10.747Z,3.80
2018-01-29T18:04:38.354Z,3.43
2018-01-29T18:07:06.017Z,3.33
2018-01-29T18:09:33.573Z,3.83
2018-01-29T18:12:01.184Z,3.50
2018-01-29T18:14:29.199Z,3.83
2018-01-29T18:16:57.580Z,4.03
2018-01-29T18:19:25.190Z,3.87
2018-01-29T18:21:52.802Z,4.40
2018-01-29T18:24:21.139Z,4.90
2018-01-29T18:26:48.701Z,4.37
2018-01-29T18:29:16.280Z,5.13
2018-01-29T18:31:43.869Z,5.00
2018-01-29T18:34:11.507Z,4.30
2018-01-29T18:36:39.069Z,4.93
2018-01-29T18:39:07.446Z,4.37
2018-01-29T18:41:35.807Z,4.93
2018-01-29T18:44:03.379Z,6.00
2018-01-29T18:46:31.754Z,5.70
2018-01-29T18:48:59.332Z,6.00
2018-01-29T18:51:27.690Z,6.30
2018-01-29T18:53:55.334Z,6.80
2018-01-29T18:56:22.990Z,6.57
2018-01-29T18:58:50.622Z,7.90
2018-01-29T19:01:18.181Z,8.33
2018-01-29T19:03:45.778Z,7.93
2018-01-29T19:06:13.348Z,7.90
2018-01-29T19:08:41.816Z,7.50
2018-01-29T19:11:09.402Z,8.20
2018-01-29T19:13:37.737Z,9.43
2018-01-29T19:16:05.334Z,9.73
2018-01-29T19:18:33.674Z,10.00
2018-01-29T19:21:01.238Z,9.40
2018-01-29T19:23:28.898Z,9.23
2018-01-29T19:25:56.676Z,9.90
2018-01-29T19:28:25.054Z,10.07
2018-01-29T19:30:53.482Z,9.67
2018-01-29T19:33:21.069Z,8.90
2018-01-29T19:35:48.672Z,10.67
2018-01-29T19:38:16.255Z,10.60
2018-01-29T19:40:43.824Z,8.70
2018-01-29T19:43:11.437Z,10.63
2018-01-29T19:45:40.036Z,11.00
2018-01-29T19:48:08.354Z,11.87
2018-01-29T19:50:35.915Z,10.30
2018-01-29T19:53:03.482Z,10.80
2018-01-29T19:55:31.211Z,10.00
2018-01-29T19:57:58.806Z,9.83
2018-01-29T20:00:26.486Z,8.30
2018-01-29T20:02:54.825Z,8.27
2018-01-29T20:05:22.715Z,8.30
2018-01-29T20:07:50.386Z,7.87
2018-01-29T20:10:17.972Z,7.67
2018-01-29T20:12:45.548Z,8.70
2018-01-29T20:15:13.259Z,8.30
2018-01-29T20:17:40.929Z,7.53
2018-01-29T20:20:09.261Z,9.30
2018-01-29T20:22:36.822Z,8.27
2018-01-29T20:25:04.421Z,9.60
2018-01-29T20:27:32.757Z,8.10
2018-01-29T20:30:00.337Z,8.27
2018-01-29T20:32:30.741Z,8.37
2018-01-29T20:34:58.418Z,9.20
2018-01-29T20:37:26.143Z,7.30
2018-01-29T20:39:53.736Z,8.33
2018-01-29T20:42:21.332Z,8.07
2018-01-29T20:44:48.890Z,8.53
2018-01-29T20:47:17.227Z,8.03
2018-01-29T20:49:44.802Z,7.83
2018-01-29T20:52:13.152Z,8.57
2018-01-29T20:54:40.849Z,7.53
2018-01-29T20:57:09.164Z,7.40
2018-01-29T20:59:37.317Z,7.50
2018-01-29T21:02:04.926Z,7.33
2018-01-29T21:04:32.492Z,6.70
2018-01-29T21:07:00.167Z,7.00
2018-01-29T21:09:28.505Z,7.17
2018-01-29T21:11:56.096Z,6.30
2018-01-29T21:14:23.753Z,6.63
2018-01-29T21:16:51.324Z,5.20
2018-01-29T21:19:19.705Z,5.23
2018-01-29T21:21:48.030Z,4.87
2018-01-29T21:24:15.591Z,4.77
2018-01-29T21:26:43.174Z,4.67
2018-01-29T21:29:10.734Z,4.30
2018-01-29T21:31:39.811Z,3.70
2018-01-29T21:34:08.193Z,3.70
2018-01-29T21:36:35.776Z,4.03
2018-01-29T21:39:04.153Z,3.80
2018-01-29T21:41:32.499Z,3.23
2018-01-29T21:44:00.194Z,3.77
2018-01-29T21:46:28.618Z,4.07
2018-01-29T21:48:56.172Z,3.50
2018-01-29T21:51:23.836Z,3.10
2018-01-29T21:53:51.422Z,3.10
2018-01-29T21:56:19.036Z,2.90
2018-01-29T21:58:46.651Z,2.80
2018-01-29T22:01:14.420Z,2.90
2018-01-29T22:03:42.013Z,2.73
2018-01-29T22:06:09.575Z,2.83
2018-01-29T22:08:37.166Z,2.80
2018-01-29T22:11:04.723Z,2.80
2018-01-29T22:13:32.283Z,2.50
2018-01-29T22:15:59.981Z,2.80
2018-01-29T22:18:28.403Z,2.60
2018-01-29T22:20:56.002Z,2.87
2018-01-29T22:23:23.565Z,3.60
2018-01-29T22:25:51.161Z,3.00
2018-01-29T22:28:18.849Z,2.73
2018-01-29T22:30:46.397Z,3.60
2018-01-29T22:33:14.000Z,3.07
2018-01-29T22:35:41.765Z,3.07
2018-01-29T22:38:09.343Z,3.27
2018-01-29T22:40:37.673Z,3.57
2018-01-29T22:43:05.244Z,3.13
2018-01-29T22:45:32.904Z,2.90
2018-01-29T22:48:00.588Z,3.23
2018-01-29T22:50:28.951Z,2.70
2018-01-29T22:52:56.672Z,3.03
2018-01-29T22:55:24.222Z,3.00
2018-01-29T22:57:51.812Z,2.40
2018-01-29T23:00:19.398Z,3.00
2018-01-29T23:02:47.719Z,2.70
2018-01-29T23:05:15.278Z,2.40
2018-01-29T23:07:42.857Z,2.70
2018-01-29T23:10:10.417Z,2.73
2018-01-29T23:12:38.000Z,2.10
2018-01-29T23:15:05.673Z,1.70
2018-01-29T23:17:34.016Z,2.33
2018-01-29T23:20:02.353Z,1.67
2018-01-29T23:22:29.933Z,2.20
2018-01-29T23:24:57.513Z,1.90
2018-01-29T23:27:25.098Z,1.60
2018-01-29T23:29:53.446Z,1.83
2018-01-29T23:32:21.022Z,1.37
2018-01-29T23:34:48.700Z,1.73
2018-01-29T23:37:17.010Z,1.87
2018-01-29T23:39:44.617Z,1.53
2018-01-29T23:42:12.980Z,2.03
2018-01-29T23:44:40.577Z,1.73
2018-01-29T23:47:08.898Z,1.13
2018-01-29T23:49:36.469Z,1.30
2018-01-29T23:52:04.053Z,1.87
2018-01-29T23:54:32.421Z,1.50
2018-01-29T23:57:00.096Z,1.30
2018-01-29T23:59:28.424Z,1.17
